Aviation Digital Data Service (ADDS)

Output produced by METARs form (1149 UTC 18 June 2019)
found at http://www.aviationweather.gov/metar/data/
 
Forecast for: KGEG (SPOKANE/METRO , WA, US)
Text: KGEG 181120Z 1812/1912 21013KT P6SM SCT250
Forecast period: 1200 to 1800 UTC 18 June 2019
Forecast type: FROM: standard forecast or significant change
Winds: from the SSW (210 degrees) at 15 MPH (13 knots; 6.7 m/s)
Visibility: 6 or more miles 10+ km)
Ceiling: at least 12,000 feet AGL
Clouds: scattered clouds at 25000 feet AGL
Weather: no significant weather forecast for this period
Text: FM181800 23013G18KT P6SM SCT070
Forecast period: 1800 UTC 18 June 2019 to 0300 UTC 19 June 2019
Forecast type: FROM: standard forecast or significant change
Winds: from the SW (230 degrees) at 15 MPH (13 knots; 6.7 m/s)
gusting to 21 MPH (18 knots; 9.3 m/s)
Visibility: 6 or more miles 10+ km)
Ceiling: at least 12,000 feet AGL
Clouds: scattered clouds at 7000 feet AGL
Weather: no significant weather forecast for this period
Text: FM190300 22011G17KT P6SM SCT250
Forecast period: 0300 to 1200 UTC 19 June 2019
Forecast type: FROM: standard forecast or significant change
Winds: from the SW (220 degrees) at 13 MPH (11 knots; 5.7 m/s)
gusting to 20 MPH (17 knots; 8.7 m/s)
Visibility: 6 or more miles 10+ km)
Ceiling: at least 12,000 feet AGL
Clouds: scattered clouds at 25000 feet AGL
Weather: no significant weather forecast for this period